createdAt,value
2022-10-14T00:01:00.464Z,101685.72
2022-10-14T00:05:58.647Z,101682.72
2022-10-14T00:10:55.258Z,101675.97
2022-10-14T00:15:51.747Z,101675.06
2022-10-14T00:20:53.535Z,101664.47
2022-10-14T00:25:51.169Z,101654.78
2022-10-14T00:30:55.373Z,101660.97
2022-10-14T00:35:55.672Z,101660.50
2022-10-14T00:40:55.427Z,101655.66
2022-10-14T00:45:52.370Z,101664.22
2022-10-14T00:50:50.620Z,101655.94
2022-10-14T00:55:47.984Z,101664.03
2022-10-14T01:00:45.306Z,101656.53
2022-10-14T01:05:48.363Z,101666.13
2022-10-14T01:10:50.686Z,101652.06
2022-10-14T01:15:51.689Z,101649.06
2022-10-14T01:20:53.865Z,101646.31
2022-10-14T01:25:59.750Z,101650.25
2022-10-14T01:30:58.506Z,101652.91
2022-10-14T01:36:01.488Z,101649.66
2022-10-14T01:40:59.986Z,101640.31
2022-10-14T01:45:58.649Z,101648.63
2022-10-14T01:50:57.097Z,101654.84
2022-10-14T01:55:55.274Z,101650.22
2022-10-14T02:00:51.981Z,101644.16
2022-10-14T02:05:52.662Z,101645.66
2022-10-14T02:11:01.762Z,101645.81
2022-10-14T02:16:04.841Z,101654.72
2022-10-14T02:21:07.790Z,101649.50
2022-10-14T02:26:05.848Z,101658.03
2022-10-14T02:31:05.563Z,101652.09
2022-10-14T02:36:05.268Z,101656.03
2022-10-14T02:41:09.684Z,101655.53
2022-10-14T02:46:06.390Z,101660.56
2022-10-14T02:51:04.542Z,101653.28
2022-10-14T02:56:01.176Z,101641.66
2022-10-14T03:00:57.781Z,101639.19
2022-10-14T03:05:55.514Z,101634.38
2022-10-14T03:10:53.012Z,101641.13
2022-10-14T03:15:50.772Z,101641.03
2022-10-14T03:20:48.894Z,101629.38
2022-10-14T03:25:50.895Z,101624.22
2022-10-14T03:30:54.066Z,101631.50
2022-10-14T03:36:26.236Z,101623.16
2022-10-14T03:41:26.124Z,101631.00
2022-10-14T03:46:23.598Z,101624.50
2022-10-14T03:51:21.580Z,101630.66
2022-10-14T03:56:18.253Z,101626.56
2022-10-14T04:01:16.304Z,101632.28
2022-10-14T04:06:32.401Z,101624.91
2022-10-14T04:11:31.926Z,101623.75
2022-10-14T04:16:34.139Z,101620.63
2022-10-14T04:21:40.643Z,101620.44
2022-10-14T04:26:40.136Z,101624.00
2022-10-14T04:31:43.324Z,101621.47
2022-10-14T04:36:41.596Z,101625.59
2022-10-14T04:41:52.366Z,101625.88
2022-10-14T04:46:53.185Z,101620.47
2022-10-14T04:51:53.453Z,101627.91
2022-10-14T04:56:57.874Z,101635.78
2022-10-14T05:01:54.528Z,101623.06
2022-10-14T05:06:51.628Z,101633.72
2022-10-14T05:11:53.913Z,101629.56
2022-10-14T05:16:55.065Z,101637.75
2022-10-14T05:21:57.560Z,101624.81
2022-10-14T05:27:04.107Z,101633.28
2022-10-14T05:32:02.197Z,101615.09
2022-10-14T05:37:22.451Z,101638.97
2022-10-14T05:42:23.198Z,101639.13
2022-10-14T05:47:23.269Z,101647.28
2022-10-14T05:52:25.351Z,101650.13
2022-10-14T05:57:24.262Z,101646.22
2022-10-14T06:02:23.919Z,101653.19
2022-10-14T06:07:25.989Z,101660.00
2022-10-14T06:12:23.421Z,101662.44
2022-10-14T06:17:22.840Z,101655.53
2022-10-14T06:22:20.024Z,101654.84
2022-10-14T06:27:17.400Z,101654.97
2022-10-14T06:32:15.445Z,101652.91
2022-10-14T06:37:12.927Z,101646.94
2022-10-14T06:42:20.791Z,101653.06
2022-10-14T06:47:19.095Z,101644.38
2022-10-14T06:52:16.733Z,101655.69
2022-10-14T06:57:13.743Z,101659.19
2022-10-14T07:02:10.990Z,101655.06
2022-10-14T07:07:07.903Z,101654.69
2022-10-14T07:12:05.892Z,101654.09
2022-10-14T07:17:07.279Z,101660.72
2022-10-14T07:22:04.643Z,101652.78
2022-10-14T07:32:04.605Z,101648.00
2022-10-14T07:37:01.261Z,101648.44
2022-10-14T07:41:57.943Z,101639.69
2022-10-14T07:47:05.214Z,101647.91
2022-10-14T07:52:56.683Z,101641.88
2022-10-14T07:58:49.030Z,101646.97
2022-10-14T08:04:03.573Z,101638.06
2022-10-14T08:15:40.027Z,101624.03
2022-10-14T08:20:37.134Z,101629.75
2022-10-14T08:25:38.452Z,101626.00
2022-10-14T08:30:35.643Z,101627.75
2022-10-14T08:35:37.681Z,101625.06
2022-10-14T08:40:49.093Z,101623.06
2022-10-14T08:45:51.578Z,101620.53
2022-10-14T08:50:51.219Z,101616.88
2022-10-14T08:55:50.502Z,101618.72
2022-10-14T09:00:49.667Z,101614.81
2022-10-14T09:11:44.389Z,101611.66
2022-10-14T09:16:41.944Z,101607.84
2022-10-14T09:21:54.725Z,101612.19
2022-10-14T09:26:53.946Z,101605.88
2022-10-14T09:31:51.357Z,101603.88
2022-10-14T09:36:49.345Z,101603.78
2022-10-14T09:42:03.742Z,101600.31
2022-10-14T09:47:36.843Z,101606.59
2022-10-14T09:52:33.916Z,101594.53
2022-10-14T09:57:38.045Z,101591.28
2022-10-14T10:02:40.053Z,101591.22
2022-10-14T10:07:41.857Z,101603.16
2022-10-14T10:12:45.829Z,101578.97
2022-10-14T10:17:44.189Z,101577.19
2022-10-14T10:22:41.308Z,101574.97
2022-10-14T10:27:39.890Z,101564.47
2022-10-14T10:32:54.378Z,101563.44
2022-10-14T10:37:57.442Z,101557.13
2022-10-14T10:43:21.238Z,101522.19
2022-10-14T10:48:25.472Z,101557.34
2022-10-14T10:53:39.986Z,101555.06
2022-10-14T10:58:51.691Z,101548.41
2022-10-14T11:04:02.439Z,101538.50
2022-10-14T11:09:24.817Z,101517.59
2022-10-14T11:14:33.521Z,101525.44
2022-10-14T11:19:37.675Z,101522.63
2022-10-14T11:24:40.360Z,101513.81
2022-10-14T11:29:45.849Z,101503.44
2022-10-14T11:34:47.988Z,101512.06
2022-10-14T11:39:51.874Z,101508.47
2022-10-14T11:44:58.619Z,101499.03
2022-10-14T11:50:00.971Z,101487.44
2022-10-14T11:55:01.769Z,101488.97
2022-10-14T12:00:00.624Z,101486.09
2022-10-14T12:05:21.015Z,101465.31
2022-10-14T12:10:22.789Z,101460.91
2022-10-14T12:15:23.141Z,101457.56
2022-10-14T12:20:26.607Z,101466.75
2022-10-14T12:25:26.577Z,101471.44
2022-10-14T12:30:31.275Z,101469.72
2022-10-14T12:35:42.991Z,101458.56
2022-10-14T12:40:42.832Z,101456.75
2022-10-14T12:45:47.133Z,101455.97
2022-10-14T12:50:45.847Z,101446.66
2022-10-14T12:55:50.848Z,101455.31
2022-10-14T13:00:52.969Z,101456.25
2022-10-14T13:05:49.859Z,101442.69
2022-10-14T13:10:48.014Z,101444.16
2022-10-14T13:15:49.686Z,101445.09
2022-10-14T13:20:51.458Z,101447.81
2022-10-14T13:25:49.866Z,101445.28
2022-10-14T13:30:51.626Z,101456.97
2022-10-14T13:35:52.082Z,101457.06
2022-10-14T13:41:23.750Z,101462.94
2022-10-14T13:46:27.902Z,101461.63
2022-10-14T13:51:42.106Z,101467.22
2022-10-14T13:57:06.582Z,101467.66
2022-10-14T14:02:16.335Z,101450.69
2022-10-14T14:07:58.991Z,101456.16
2022-10-14T14:12:51.609Z,101466.53
2022-10-14T14:17:49.332Z,101463.75
2022-10-14T14:22:48.010Z,101474.72
2022-10-14T14:27:48.589Z,101476.97
2022-10-14T14:32:45.501Z,101461.03
2022-10-14T14:37:55.203Z,101479.91
2022-10-14T14:42:54.275Z,101480.44
2022-10-14T14:47:52.351Z,101481.69
2022-10-14T14:52:53.012Z,101484.22
2022-10-14T14:57:57.957Z,101478.13
2022-10-14T15:03:00.452Z,101488.16
2022-10-14T15:07:58.263Z,101487.31
2022-10-14T15:12:59.677Z,101493.53
2022-10-14T15:18:11.616Z,101498.53
2022-10-14T15:23:33.974Z,101503.84
2022-10-14T15:28:32.052Z,101496.63
2022-10-14T15:33:29.918Z,101497.41
2022-10-14T15:38:27.632Z,101501.78
2022-10-14T15:43:25.096Z,101511.31
2022-10-14T15:48:25.502Z,101514.59
2022-10-14T15:53:22.200Z,101508.22
2022-10-14T15:58:18.909Z,101518.03
2022-10-14T16:03:17.125Z,101524.25
2022-10-14T16:08:21.331Z,101534.88
2022-10-14T16:13:17.992Z,101532.69
2022-10-14T16:18:18.029Z,101534.19
2022-10-14T16:23:17.748Z,101531.41
2022-10-14T16:28:15.625Z,101527.75
2022-10-14T16:38:24.061Z,101534.47
2022-10-14T16:43:21.579Z,101541.28
2022-10-14T16:48:29.597Z,101546.19
2022-10-14T16:53:40.457Z,101543.56
2022-10-14T16:58:38.814Z,101549.88
2022-10-14T17:03:36.451Z,101548.16
2022-10-14T17:08:34.450Z,101551.88
2022-10-14T17:13:31.141Z,101554.72
2022-10-14T17:18:33.687Z,101556.00
2022-10-14T17:23:34.224Z,101556.66
2022-10-14T17:28:33.229Z,101558.69
2022-10-14T17:33:30.873Z,101559.81
2022-10-14T17:38:29.205Z,101560.03
2022-10-14T17:43:26.030Z,101569.34
2022-10-14T17:48:27.020Z,101569.34
2022-10-14T17:53:24.848Z,101562.78
2022-10-14T17:58:22.792Z,101560.94
2022-10-14T18:03:19.563Z,101564.66
2022-10-14T18:08:16.340Z,101557.94
2022-10-14T18:13:15.105Z,101565.94
2022-10-14T18:18:11.982Z,101555.19
2022-10-14T18:23:10.826Z,101570.25
2022-10-14T18:28:08.397Z,101576.16
2022-10-14T18:33:06.041Z,101572.69
2022-10-14T18:38:02.615Z,101588.88
2022-10-14T18:43:01.015Z,101592.41
2022-10-14T18:48:00.729Z,101595.56
2022-10-14T18:52:58.163Z,101607.94
2022-10-14T18:57:54.808Z,101613.78
2022-10-14T19:02:54.351Z,101608.44
2022-10-14T19:07:56.141Z,101609.72
2022-10-14T19:12:53.710Z,101622.16
2022-10-14T19:17:54.508Z,101624.28
2022-10-14T19:22:56.509Z,101630.84
2022-10-14T19:27:54.349Z,101637.28
2022-10-14T19:32:51.044Z,101650.16
2022-10-14T19:37:47.935Z,101645.25
2022-10-14T19:42:44.865Z,101651.94
2022-10-14T19:47:42.444Z,101653.59
2022-10-14T19:52:41.510Z,101657.59
2022-10-14T19:57:38.245Z,101663.81
2022-10-14T20:07:38.578Z,101671.50
2022-10-14T20:12:35.250Z,101679.22
2022-10-14T20:17:32.053Z,101681.94
2022-10-14T20:22:28.662Z,101675.56
2022-10-14T20:27:26.255Z,101676.69
2022-10-14T20:32:23.311Z,101677.56
2022-10-14T20:37:23.031Z,101682.44
2022-10-14T20:42:22.489Z,101682.09
2022-10-14T20:47:20.059Z,101685.91
2022-10-14T20:52:17.192Z,101671.50
2022-10-14T20:57:13.884Z,101683.81
2022-10-14T21:02:15.886Z,101680.88
2022-10-14T21:07:13.301Z,101682.50
2022-10-14T21:12:10.198Z,101682.69
2022-10-14T21:17:06.846Z,101681.59
2022-10-14T21:22:03.548Z,101679.25
2022-10-14T21:27:01.231Z,101677.56
2022-10-14T21:32:03.790Z,101680.84
2022-10-14T21:37:00.831Z,101692.47
2022-10-14T21:41:57.457Z,101686.94
2022-10-14T21:46:55.016Z,101672.81
2022-10-14T21:51:51.688Z,101685.00
2022-10-14T21:56:48.516Z,101694.50
2022-10-14T22:01:45.438Z,101685.41
2022-10-14T22:06:42.652Z,101669.22
2022-10-14T22:11:39.675Z,101674.75
2022-10-14T22:16:36.275Z,101683.84
2022-10-14T22:21:34.497Z,101682.88
2022-10-14T22:26:31.875Z,101684.47
2022-10-14T22:31:29.143Z,101691.78
2022-10-14T22:36:27.637Z,101684.47
2022-10-14T22:41:24.764Z,101684.47
2022-10-14T22:46:23.602Z,101678.91
2022-10-14T22:51:20.240Z,101683.94
2022-10-14T22:56:18.432Z,101684.75
2022-10-14T23:01:16.024Z,101685.91
2022-10-14T23:06:14.047Z,101684.47
2022-10-14T23:11:12.661Z,101681.69
2022-10-14T23:16:13.845Z,101661.09
2022-10-14T23:21:11.232Z,101688.16
2022-10-14T23:26:09.236Z,101690.41
2022-10-14T23:31:10.287Z,101693.03
2022-10-14T23:36:07.856Z,101689.72
2022-10-14T23:41:04.932Z,101697.66
2022-10-14T23:46:02.362Z,101704.41
2022-10-14T23:50:59.074Z,101702.03
2022-10-14T23:55:56.203Z,101695.72
